Aeroporto :
LOGIN :

Iscrizione | Disclaimer

   EN    FR    IT 

 










Sommario :    VFR   VFR Marginale   IFR   IFR Intensivo   IFR Molto Intensivo
Visibilità : 
Base nubi : 
>= 8 km
>= 3000ft
5 / 8 km
1000 / 3000 ft
1500m / 5 km
500 / 1000 ft
800 / 1500m
200 / 500 ft
< 800m
< 200 ft
Simboli :   Temporali  Nebbia  Neve Forte  Precipitazioni Forti  Vento > 20 kt
SIGMETs :   Varie  Temporali  Ghiacco  Turbolenza  Onda orograficha  Ceneri Vulcaniche







- Altitudine del aeroporto : 1411 ft
- Codice IATA : GVA


LSGG - Genève Cointrin

ULTIMO METAR :
  • 210550Z VRB02KT 9999 FEW003 BKN110 17/16 Q1014 NOSIG

METARs OBSOLETI :
  • 210520Z VRB01KT 9999 FEW035 BKN110 17/17 Q1014 NOSIG
  • 210450Z 31002KT 9999 FEW070 BKN110 17/16 Q1014 NOSIG
  • 210420Z VRB02KT 9999 -RA FEW070 SCT090 BKN120 17/16 Q1014 NOSIG
  • 210350Z 27004KT 240V310 CAVOK 16/16 Q1014 NOSIG
  • 210320Z AUTO VRB01KT CAVOK 16/16 Q1014 NOSIG
  • 210250Z AUTO VRB01KT CAVOK 16/16 Q1014 NOSIG

TAF TAF LSGG
Valido dal 21 a 06 ore il 22 a 12 ore UTC


210525Z 2106/2212 VRB03KT 9999 FEW080 SCT120 TX24/2115Z TN17/2106Z TN14/2204Z
TEMPO 2111/2118 SHRA SCT050TCU
PROB30
TEMPO 2112/2116 TSRA SCT050CB
ATIS : +41 22 417 40 81
Nessun NOTAM noto per questo aeroporto.



MetMap, La meteo Aeronautica in un colpo d'occhio ! - Copyright ORBIFLY Dicembre 2007 - Disclaimer

ORBIFLY MET'MAP TEAM :

Programmazione e sviluppo : Alexandra Zaïnal
Concezione e sviluppo : Baudouin d'Aumeries
Co-Programmazione e sviluppo : Marc-Olivier Méhu
Supporto tecnico e logistico : Manuel Goepfert
Aiuto per la traduzione : Arnaldo La Scala

Contatto : metmap@orbifly.com




FONTI E CREDITI :

   NOAA